createdAt,value
2023-10-06T00:07:12.094Z,1023.26
2023-10-06T00:17:12.314Z,1023.20
2023-10-06T00:27:12.482Z,1023.41
2023-10-06T00:37:12.693Z,1023.45
2023-10-06T00:47:12.977Z,1023.33
2023-10-06T00:57:13.172Z,1023.17
2023-10-06T01:07:13.382Z,1023.13
2023-10-06T01:17:13.588Z,1022.99
2023-10-06T01:27:13.758Z,1023.13
2023-10-06T01:37:13.978Z,1023.24
2023-10-06T01:47:14.112Z,1023.22
2023-10-06T01:57:14.291Z,1023.20
2023-10-06T02:07:14.488Z,1023.13
2023-10-06T02:17:14.704Z,1023.17
2023-10-06T02:27:14.886Z,1023.19
2023-10-06T02:37:15.061Z,1023.21
2023-10-06T02:47:15.430Z,1023.20
2023-10-06T02:57:15.518Z,1023.21
2023-10-06T03:07:15.709Z,1023.18
2023-10-06T03:17:15.975Z,1023.11
2023-10-06T03:27:16.014Z,1023.20
2023-10-06T03:37:16.188Z,1023.11
2023-10-06T03:47:16.445Z,1023.14
2023-10-06T03:57:16.471Z,1023.16
2023-10-06T04:07:16.663Z,1023.20
2023-10-06T04:17:16.847Z,1023.13
2023-10-06T04:27:17.180Z,1023.08
2023-10-06T04:37:17.149Z,1022.98
2023-10-06T04:47:17.461Z,1022.98
2023-10-06T04:57:17.779Z,1023.00
2023-10-06T05:07:17.597Z,1022.99
2023-10-06T05:17:17.935Z,1023.04
2023-10-06T05:27:17.922Z,1022.92
2023-10-06T05:37:18.106Z,1022.98
2023-10-06T05:47:18.374Z,1023.06
2023-10-06T05:57:18.382Z,1023.12
2023-10-06T06:07:18.565Z,1023.26
2023-10-06T06:17:18.810Z,1023.43
2023-10-06T06:27:18.983Z,1023.42
2023-10-06T06:37:19.165Z,1023.54
2023-10-06T06:47:19.345Z,1023.49
2023-10-06T06:57:19.496Z,1023.38
2023-10-06T07:07:19.677Z,1023.47
2023-10-06T07:17:19.958Z,1023.54
2023-10-06T07:27:20.011Z,1023.58
2023-10-06T07:37:20.193Z,1023.61
2023-10-06T07:47:20.396Z,1023.63
2023-10-06T07:57:20.578Z,1023.59
2023-10-06T08:07:20.794Z,1023.73
2023-10-06T08:17:21.022Z,1023.62
2023-10-06T08:27:21.186Z,1023.61
2023-10-06T08:37:21.358Z,1023.60
2023-10-06T08:47:29.141Z,1023.64
2023-10-06T08:57:22.794Z,1023.56
2023-10-06T09:07:22.098Z,1023.45
2023-10-06T09:17:22.178Z,1023.42
2023-10-06T09:27:22.295Z,1023.32
2023-10-06T09:37:22.471Z,1023.24
2023-10-06T09:47:22.722Z,1023.23
2023-10-06T09:57:23.798Z,1023.19
2023-10-06T10:07:23.041Z,1023.16
2023-10-06T10:17:23.283Z,1023.12
2023-10-06T10:27:23.443Z,1023.04
2023-10-06T10:37:23.606Z,1023.00
2023-10-06T10:47:23.801Z,1022.94
2023-10-06T10:57:24.001Z,1022.82
2023-10-06T11:07:24.154Z,1022.71
2023-10-06T11:17:24.475Z,1022.60
2023-10-06T11:27:24.564Z,1022.47
2023-10-06T11:37:25.757Z,1022.43
2023-10-06T11:47:24.880Z,1022.25
2023-10-06T11:57:25.040Z,1022.26
2023-10-06T12:07:25.226Z,1022.14
2023-10-06T12:17:25.426Z,1022.05
2023-10-06T12:27:25.692Z,1021.97
2023-10-06T12:37:25.880Z,1021.81
2023-10-06T12:47:26.149Z,1021.75
2023-10-06T12:57:26.354Z,1021.73
2023-10-06T13:07:26.540Z,1021.57
2023-10-06T13:17:28.827Z,1021.54
2023-10-06T13:27:26.871Z,1021.45
2023-10-06T13:37:27.047Z,1021.40
2023-10-06T13:47:27.277Z,1021.39
2023-10-06T13:57:27.456Z,1021.33
2023-10-06T14:07:27.646Z,1021.35
2023-10-06T14:17:27.907Z,1021.22
2023-10-06T14:27:28.078Z,1021.28
2023-10-06T14:37:28.262Z,1021.32
2023-10-06T14:47:28.485Z,1021.22
2023-10-06T14:57:28.707Z,1021.17
2023-10-06T15:07:28.920Z,1021.17
2023-10-06T15:17:29.154Z,1021.18
2023-10-06T15:27:29.338Z,1021.24
2023-10-06T15:37:29.739Z,1021.24
2023-10-06T15:47:29.781Z,1021.34
2023-10-06T15:57:29.946Z,1021.26
2023-10-06T16:07:30.123Z,1021.30
2023-10-06T16:17:30.375Z,1021.23
2023-10-06T16:27:30.555Z,1021.29
2023-10-06T16:37:30.739Z,1021.33
2023-10-06T16:47:30.974Z,1021.42
2023-10-06T16:57:31.674Z,1021.44
2023-10-06T17:07:31.249Z,1021.55
2023-10-06T17:17:31.523Z,1021.58
2023-10-06T17:27:31.527Z,1021.69
2023-10-06T17:37:31.718Z,1021.81
2023-10-06T17:47:32.128Z,1021.86
2023-10-06T17:57:33.128Z,1021.95
2023-10-06T18:07:32.476Z,1021.86
2023-10-06T18:17:32.711Z,1022.01
2023-10-06T18:27:32.889Z,1022.08
2023-10-06T18:37:33.123Z,1022.16
2023-10-06T18:47:33.288Z,1022.19
2023-10-06T18:57:33.403Z,1022.23
2023-10-06T19:07:33.648Z,1022.33
2023-10-06T19:17:34.969Z,1022.43
2023-10-06T19:27:33.877Z,1022.57
2023-10-06T19:37:34.048Z,1022.59
2023-10-06T19:47:34.347Z,1022.67
2023-10-06T19:57:34.296Z,1022.64
2023-10-06T20:07:34.493Z,1022.67
2023-10-06T20:17:34.586Z,1022.67
2023-10-06T20:27:34.648Z,1022.62
2023-10-06T20:37:34.765Z,1022.61
2023-10-06T20:47:34.891Z,1022.68
2023-10-06T20:57:34.958Z,1022.69
2023-10-06T21:07:35.141Z,1022.72
2023-10-06T21:17:35.312Z,1022.85
2023-10-06T21:27:35.580Z,1022.82
2023-10-06T21:37:35.804Z,1022.87
2023-10-06T21:47:35.978Z,1022.85
2023-10-06T21:57:36.249Z,1022.91
2023-10-06T22:07:36.298Z,1022.91
2023-10-06T22:17:36.522Z,1022.99
2023-10-06T22:27:36.709Z,1022.90
2023-10-06T22:37:36.926Z,1022.83
2023-10-06T22:47:37.343Z,1022.82
2023-10-06T22:57:37.314Z,1022.88
2023-10-06T23:07:37.508Z,1022.82
2023-10-06T23:17:37.702Z,1022.78
2023-10-06T23:27:37.875Z,1022.85
2023-10-06T23:37:38.143Z,1022.85
2023-10-06T23:47:38.442Z,1022.84
2023-10-06T23:57:38.411Z,1022.87
